createdAt,value
2017-05-28T00:02:05.431Z,9.90
2017-05-28T00:04:32.048Z,8.33
2017-05-28T00:06:58.690Z,6.63
2017-05-28T00:09:25.383Z,7.17
2017-05-28T00:11:51.998Z,6.53
2017-05-28T00:14:18.643Z,7.30
2017-05-28T00:16:45.255Z,7.12
2017-05-28T00:19:11.931Z,6.82
2017-05-28T00:21:38.571Z,6.53
2017-05-28T00:24:05.210Z,7.40
2017-05-28T00:26:31.839Z,7.48
2017-05-28T00:28:58.478Z,6.90
2017-05-28T00:31:25.126Z,7.35
2017-05-28T00:33:51.770Z,6.93
2017-05-28T00:36:18.406Z,6.47
2017-05-28T00:38:45.042Z,6.97
2017-05-28T00:41:11.682Z,6.30
2017-05-28T00:43:38.432Z,7.78
2017-05-28T00:46:05.063Z,6.30
2017-05-28T00:48:31.683Z,6.62
2017-05-28T00:50:58.534Z,6.63
2017-05-28T00:53:25.244Z,6.62
2017-05-28T00:55:51.931Z,6.40
2017-05-28T00:58:18.771Z,7.43
2017-05-28T01:00:45.382Z,7.62
2017-05-28T01:03:12.046Z,6.58
2017-05-28T01:05:38.775Z,6.30
2017-05-28T01:08:05.388Z,7.27
2017-05-28T01:10:32.003Z,8.08
2017-05-28T01:12:58.715Z,8.20
2017-05-28T01:15:25.332Z,7.17
2017-05-28T01:17:51.984Z,7.80
2017-05-28T01:20:18.727Z,6.60
2017-05-28T01:22:45.372Z,7.78
2017-05-28T01:25:11.987Z,7.02
2017-05-28T01:27:38.751Z,7.05
2017-05-28T01:30:05.367Z,7.08
2017-05-28T01:32:31.982Z,7.52
2017-05-28T01:34:59.076Z,7.77
2017-05-28T01:37:25.694Z,7.25
2017-05-28T01:39:52.312Z,7.25
2017-05-28T01:42:18.991Z,8.52
2017-05-28T01:44:45.627Z,7.75
2017-05-28T01:47:12.267Z,8.90
2017-05-28T01:49:39.011Z,9.08
2017-05-28T01:52:05.685Z,11.85
2017-05-28T01:54:32.299Z,9.70
2017-05-28T01:56:58.939Z,9.32
2017-05-28T01:59:25.555Z,7.55
2017-05-28T02:01:52.175Z,8.22
2017-05-28T02:04:18.831Z,7.85
2017-05-28T02:06:45.443Z,8.02
2017-05-28T02:09:12.127Z,7.82
2017-05-28T02:11:38.759Z,7.77
2017-05-28T02:14:05.376Z,7.57
2017-05-28T02:16:31.991Z,8.38
2017-05-28T02:18:58.634Z,8.28
2017-05-28T02:21:25.251Z,7.83
2017-05-28T02:23:51.955Z,8.05
2017-05-28T02:26:18.595Z,8.18
2017-05-28T02:28:45.208Z,7.48
2017-05-28T02:31:11.822Z,7.28
2017-05-28T02:33:38.459Z,7.45
2017-05-28T02:36:05.151Z,8.10
2017-05-28T02:38:31.763Z,7.75
2017-05-28T02:40:58.402Z,8.52
2017-05-28T02:43:25.067Z,7.65
2017-05-28T02:45:51.683Z,7.80
2017-05-28T02:48:18.352Z,7.00
2017-05-28T02:50:44.963Z,7.80
2017-05-28T02:53:11.622Z,8.28
2017-05-28T02:55:38.263Z,7.85
2017-05-28T02:58:04.878Z,8.75
2017-05-28T03:00:31.494Z,7.98
2017-05-28T03:02:58.144Z,9.90
2017-05-28T03:05:24.823Z,9.68
2017-05-28T03:07:51.444Z,10.55
2017-05-28T03:10:18.200Z,11.53
2017-05-28T03:12:44.823Z,9.80
2017-05-28T03:15:11.479Z,10.52
2017-05-28T03:17:38.226Z,10.08
2017-05-28T03:20:04.964Z,10.10
2017-05-28T03:22:31.584Z,8.95
2017-05-28T03:24:58.244Z,10.53
2017-05-28T03:27:24.878Z,10.37
2017-05-28T03:29:51.502Z,10.47
2017-05-28T03:32:18.363Z,11.17
2017-05-28T03:34:45.002Z,11.08
2017-05-28T03:37:11.747Z,10.88
2017-05-28T03:39:38.485Z,9.92
2017-05-28T03:42:05.123Z,10.33
2017-05-28T03:44:31.762Z,10.20
2017-05-28T03:46:58.502Z,10.78
2017-05-28T03:49:25.124Z,10.73
2017-05-28T03:51:51.751Z,10.37
2017-05-28T03:54:18.418Z,10.27
2017-05-28T03:56:45.059Z,10.03
2017-05-28T03:59:11.679Z,9.37
2017-05-28T04:01:38.508Z,9.30
2017-05-28T04:04:05.126Z,9.60
2017-05-28T04:06:31.823Z,8.63
2017-05-28T04:08:58.464Z,9.15
2017-05-28T04:11:25.083Z,10.18
2017-05-28T04:13:51.706Z,10.03
2017-05-28T04:16:18.351Z,9.47
2017-05-28T04:18:44.980Z,9.10
2017-05-28T04:21:11.601Z,9.77
2017-05-28T04:23:38.298Z,9.60
2017-05-28T04:26:04.935Z,9.37
2017-05-28T04:28:31.556Z,9.28
2017-05-28T04:30:58.376Z,8.82
2017-05-28T04:33:25.196Z,8.55
2017-05-28T04:35:52.027Z,8.27
2017-05-28T04:38:18.695Z,8.02
2017-05-28T04:40:45.662Z,10.47
2017-05-28T04:43:13.593Z,10.00
2017-05-28T04:45:41.359Z,10.45
2017-05-28T04:48:08.067Z,9.93
2017-05-28T04:50:34.842Z,10.45
2017-05-28T04:53:02.619Z,10.05
2017-05-28T04:55:30.717Z,10.05
2017-05-28T04:57:57.384Z,8.65
2017-05-28T05:00:24.031Z,8.28
2017-05-28T05:02:50.771Z,8.70
2017-05-28T05:05:18.951Z,7.97
2017-05-28T05:07:45.839Z,8.88
2017-05-28T05:10:12.650Z,9.03
2017-05-28T05:12:39.302Z,9.00
2017-05-28T05:15:05.941Z,8.55
2017-05-28T05:17:32.668Z,8.15
2017-05-28T05:19:59.392Z,8.40
2017-05-28T05:22:26.163Z,8.68
2017-05-28T05:24:54.049Z,7.35
2017-05-28T05:27:21.187Z,8.17
2017-05-28T05:29:48.647Z,9.00
2017-05-28T05:32:16.033Z,8.83
2017-05-28T05:34:43.471Z,8.70
2017-05-28T05:37:10.303Z,9.52
2017-05-28T05:39:37.238Z,8.45
2017-05-28T05:42:03.997Z,10.50
2017-05-28T05:44:30.619Z,8.33
2017-05-28T05:46:57.677Z,9.35
2017-05-28T05:49:24.624Z,7.82
2017-05-28T05:51:51.302Z,7.72
2017-05-28T05:54:17.914Z,8.38
2017-05-28T05:56:45.218Z,7.58
2017-05-28T05:59:12.511Z,7.30
2017-05-28T06:01:39.219Z,7.55
2017-05-28T06:04:05.965Z,7.93
2017-05-28T06:06:33.657Z,8.67
2017-05-28T06:09:00.911Z,7.10
2017-05-28T06:11:27.560Z,7.65
2017-05-28T06:13:55.373Z,6.60
2017-05-28T06:16:22.672Z,7.00
2017-05-28T06:18:49.319Z,6.77
2017-05-28T06:21:16.015Z,6.40
2017-05-28T06:23:42.676Z,6.38
2017-05-28T06:26:09.316Z,6.30
2017-05-28T06:28:35.954Z,6.73
2017-05-28T06:31:02.571Z,6.38
2017-05-28T06:33:29.213Z,6.37
2017-05-28T06:35:55.851Z,6.78
2017-05-28T06:38:22.525Z,5.67
2017-05-28T06:40:49.232Z,6.15
2017-05-28T06:43:15.867Z,6.30
2017-05-28T06:45:42.484Z,5.98
2017-05-28T06:48:09.147Z,6.47
2017-05-28T06:50:35.783Z,5.45
2017-05-28T06:53:02.398Z,4.87
2017-05-28T06:55:29.011Z,5.07
2017-05-28T06:57:55.647Z,5.73
2017-05-28T07:00:22.343Z,4.47
2017-05-28T07:02:48.964Z,5.33
2017-05-28T07:05:15.607Z,4.72
2017-05-28T07:07:42.255Z,4.57
2017-05-28T07:10:08.871Z,4.40
2017-05-28T07:12:35.515Z,4.77
2017-05-28T07:15:02.141Z,4.92
2017-05-28T07:17:28.759Z,5.47
2017-05-28T07:19:55.419Z,5.30
2017-05-28T07:22:22.096Z,4.93
2017-05-28T07:24:48.711Z,4.35
2017-05-28T07:27:15.354Z,4.12
2017-05-28T07:29:41.972Z,4.03
2017-05-28T07:32:08.587Z,4.85
2017-05-28T07:34:35.288Z,4.37
2017-05-28T07:37:01.928Z,4.12
2017-05-28T07:39:28.550Z,4.23
2017-05-28T07:41:55.315Z,4.47
2017-05-28T07:44:21.954Z,4.38
2017-05-28T07:46:48.592Z,4.20
2017-05-28T07:49:15.241Z,4.17
2017-05-28T07:51:41.883Z,4.32
2017-05-28T07:54:08.611Z,4.23
2017-05-28T07:56:35.353Z,9.78
2017-05-28T07:59:01.975Z,5.15
2017-05-28T08:01:28.605Z,4.78
2017-05-28T08:03:55.244Z,3.88
2017-05-28T08:06:21.864Z,4.63
2017-05-28T08:08:48.484Z,3.95
2017-05-28T08:11:15.190Z,4.07
2017-05-28T08:13:41.803Z,4.37
2017-05-28T08:16:08.439Z,5.07
2017-05-28T08:18:35.083Z,4.02
2017-05-28T08:21:01.699Z,4.45
2017-05-28T08:23:28.384Z,4.48
2017-05-28T08:25:55.026Z,4.70
2017-05-28T08:28:21.645Z,4.35
2017-05-28T08:30:48.296Z,4.02
2017-05-28T08:33:14.964Z,4.32
2017-05-28T08:35:41.591Z,4.05
2017-05-28T08:38:08.212Z,4.33
2017-05-28T08:40:34.946Z,3.60
2017-05-28T08:43:01.571Z,3.82
2017-05-28T08:45:28.187Z,4.22
2017-05-28T08:47:54.860Z,4.30
2017-05-28T08:50:21.484Z,3.73
2017-05-28T08:52:48.147Z,3.23
2017-05-28T08:55:14.787Z,3.72
2017-05-28T08:57:41.400Z,3.88
2017-05-28T09:00:08.017Z,4.62
2017-05-28T09:02:34.655Z,4.55
2017-05-28T09:05:01.273Z,4.03
2017-05-28T09:07:27.886Z,3.78
2017-05-28T09:09:54.619Z,3.62
2017-05-28T09:12:21.232Z,3.82
2017-05-28T09:14:47.851Z,4.42
2017-05-28T09:17:14.487Z,4.08
2017-05-28T09:19:41.179Z,3.23
2017-05-28T09:22:07.795Z,4.28
2017-05-28T09:24:34.430Z,3.22
2017-05-28T09:27:01.091Z,3.85
2017-05-28T09:29:27.707Z,3.68
2017-05-28T09:31:54.347Z,4.00
2017-05-28T09:34:20.963Z,2.90
2017-05-28T09:36:47.646Z,3.27
2017-05-28T09:39:14.390Z,3.18
2017-05-28T09:41:41.031Z,3.65
2017-05-28T09:44:07.666Z,3.68
2017-05-28T09:46:34.406Z,14.12
2017-05-28T09:49:01.023Z,3.10
2017-05-28T09:51:27.640Z,3.08
2017-05-28T09:53:54.298Z,2.80
2017-05-28T09:56:20.966Z,3.33
2017-05-28T09:58:47.608Z,2.88
2017-05-28T10:01:14.256Z,3.38
2017-05-28T10:03:40.983Z,3.68
2017-05-28T10:06:07.613Z,3.35
2017-05-28T10:08:34.274Z,3.08
2017-05-28T10:11:00.903Z,2.95
2017-05-28T10:13:27.522Z,2.95
2017-05-28T10:15:54.163Z,2.70
2017-05-28T10:18:20.779Z,2.92
2017-05-28T10:20:47.399Z,2.22
2017-05-28T10:23:14.038Z,3.07
2017-05-28T10:25:40.650Z,2.75
2017-05-28T10:28:07.270Z,2.12
2017-05-28T10:30:34.019Z,2.77
2017-05-28T10:33:00.635Z,2.98
2017-05-28T10:35:27.291Z,3.10
2017-05-28T10:37:53.927Z,2.40
2017-05-28T10:40:20.559Z,2.65
2017-05-28T10:42:47.184Z,2.50
2017-05-28T10:45:13.852Z,2.45
2017-05-28T10:47:40.497Z,2.48
2017-05-28T10:50:07.130Z,2.68
2017-05-28T10:52:33.772Z,2.78
2017-05-28T10:55:00.394Z,2.45
2017-05-28T10:57:27.043Z,3.60
2017-05-28T10:59:53.683Z,2.60
2017-05-28T11:02:20.327Z,2.30
2017-05-28T11:04:46.954Z,2.40
2017-05-28T11:07:13.699Z,2.33
2017-05-28T11:09:40.339Z,2.55
2017-05-28T11:12:06.962Z,2.68
2017-05-28T11:14:33.607Z,2.88
2017-05-28T11:17:00.294Z,2.57
2017-05-28T11:19:27.001Z,3.10
2017-05-28T11:21:54.750Z,2.60
2017-05-28T11:24:21.373Z,3.63
2017-05-28T11:26:47.994Z,3.08
2017-05-28T11:29:14.635Z,2.68
2017-05-28T11:31:41.318Z,2.85
2017-05-28T11:34:07.964Z,2.95
2017-05-28T11:36:34.599Z,2.78
2017-05-28T11:39:01.244Z,2.53
2017-05-28T11:41:27.872Z,2.88
2017-05-28T11:43:54.627Z,2.48
2017-05-28T11:46:21.251Z,2.55
2017-05-28T11:48:47.868Z,2.64
2017-05-28T11:51:14.507Z,2.32
2017-05-28T11:53:41.177Z,2.34
2017-05-28T11:56:07.799Z,2.48
2017-05-28T11:58:34.692Z,2.18
2017-05-28T12:01:01.303Z,3.30
2017-05-28T12:03:27.936Z,2.48
2017-05-28T12:05:54.575Z,2.50
2017-05-28T12:08:21.559Z,2.30
2017-05-28T12:10:48.175Z,2.24
2017-05-28T12:13:14.822Z,1.98
2017-05-28T12:15:41.434Z,1.98
2017-05-28T12:18:08.055Z,2.06
2017-05-28T12:20:34.727Z,2.54
2017-05-28T12:23:01.358Z,1.90
2017-05-28T12:25:28.951Z,1.70
2017-05-28T12:27:55.589Z,2.40
2017-05-28T12:30:22.209Z,2.12
2017-05-28T12:32:48.935Z,1.80
2017-05-28T12:35:15.576Z,2.38
2017-05-28T12:37:42.220Z,2.04
2017-05-28T12:40:08.835Z,1.88
2017-05-28T12:42:35.599Z,1.82
2017-05-28T12:45:02.239Z,1.86
2017-05-28T12:47:28.870Z,2.10
2017-05-28T12:49:55.516Z,1.60
2017-05-28T12:52:22.131Z,1.86
2017-05-28T12:54:48.786Z,1.74
2017-05-28T12:57:15.427Z,1.66
2017-05-28T12:59:42.079Z,1.70
2017-05-28T13:02:08.709Z,1.76
2017-05-28T13:04:35.447Z,1.46
2017-05-28T13:07:02.086Z,1.48
2017-05-28T13:09:28.726Z,1.34
2017-05-28T13:11:55.471Z,2.54
2017-05-28T13:14:22.088Z,1.80
2017-05-28T13:16:48.703Z,1.56
2017-05-28T13:19:15.484Z,1.52
2017-05-28T13:21:42.057Z,1.62
2017-05-28T13:24:08.763Z,1.60
2017-05-28T13:26:35.403Z,1.80
2017-05-28T13:29:02.023Z,1.36
2017-05-28T13:31:28.683Z,1.34
2017-05-28T13:33:55.329Z,1.70
2017-05-28T13:36:22.063Z,1.56
2017-05-28T13:38:48.707Z,1.36
2017-05-28T13:41:15.343Z,1.40
2017-05-28T13:43:41.954Z,1.80
2017-05-28T13:46:08.619Z,1.24
2017-05-28T13:48:35.251Z,1.14
2017-05-28T13:51:01.867Z,1.52
2017-05-28T13:53:28.546Z,1.14
2017-05-28T13:55:55.271Z,1.58
2017-05-28T13:58:21.916Z,1.30
2017-05-28T14:00:48.534Z,1.46
2017-05-28T14:03:15.191Z,1.50
2017-05-28T14:05:41.806Z,1.62
2017-05-28T14:08:08.428Z,1.42
2017-05-28T14:10:35.071Z,1.56
2017-05-28T14:13:01.687Z,1.92
2017-05-28T14:15:28.307Z,1.42
2017-05-28T14:17:54.960Z,1.32
2017-05-28T14:20:21.575Z,1.40
2017-05-28T14:22:48.200Z,1.22
2017-05-28T14:25:14.949Z,1.34
2017-05-28T14:27:41.563Z,1.52
2017-05-28T14:30:08.218Z,1.90
2017-05-28T14:32:34.966Z,1.70
2017-05-28T14:35:01.587Z,1.82
2017-05-28T14:37:28.243Z,1.54
2017-05-28T14:39:54.882Z,1.58
2017-05-28T14:42:21.523Z,1.18
2017-05-28T14:44:48.147Z,1.48
2017-05-28T14:47:14.904Z,1.14
2017-05-28T14:49:41.519Z,1.40
2017-05-28T14:52:08.138Z,2.28
2017-05-28T14:54:34.820Z,1.32
2017-05-28T14:57:01.435Z,1.50
2017-05-28T14:59:28.054Z,1.20
2017-05-28T15:01:54.695Z,1.44
2017-05-28T15:04:21.312Z,1.30
2017-05-28T15:06:47.928Z,1.42
2017-05-28T15:09:14.567Z,1.40
2017-05-28T15:11:41.183Z,1.40
2017-05-28T15:14:07.807Z,1.26
2017-05-28T15:16:34.467Z,1.36
2017-05-28T15:19:01.087Z,0.90
2017-05-28T15:21:27.772Z,2.52
2017-05-28T15:23:54.439Z,1.60
2017-05-28T15:26:21.127Z,1.58
2017-05-28T15:28:47.743Z,2.06
2017-05-28T15:31:14.407Z,2.06
2017-05-28T15:33:41.022Z,1.46
2017-05-28T15:36:07.641Z,1.80
2017-05-28T15:38:34.319Z,1.52
2017-05-28T15:41:00.959Z,1.44
2017-05-28T15:43:27.583Z,1.62
2017-05-28T15:45:54.247Z,1.74
2017-05-28T15:48:20.863Z,1.74
2017-05-28T15:50:47.479Z,1.56
2017-05-28T15:53:14.161Z,1.20
2017-05-28T15:55:40.784Z,1.20
2017-05-28T15:58:07.433Z,1.16
2017-05-28T16:00:34.075Z,0.96
2017-05-28T16:03:00.687Z,1.28
2017-05-28T16:05:27.306Z,1.06
2017-05-28T16:07:53.951Z,0.80
2017-05-28T16:10:20.627Z,1.00
2017-05-28T16:12:47.252Z,1.20
2017-05-28T16:15:13.899Z,0.90
2017-05-28T16:17:40.551Z,0.94
2017-05-28T16:20:07.698Z,1.10
2017-05-28T16:22:34.339Z,1.16
2017-05-28T16:25:00.954Z,1.02
2017-05-28T16:27:27.575Z,1.46
2017-05-28T16:29:54.250Z,1.02
2017-05-28T16:32:20.891Z,1.06
2017-05-28T16:34:47.512Z,1.48
2017-05-28T16:37:14.151Z,1.50
2017-05-28T16:39:40.770Z,1.08
2017-05-28T16:42:07.387Z,1.06
2017-05-28T16:44:34.027Z,0.80
2017-05-28T16:47:00.722Z,1.28
2017-05-28T16:49:27.364Z,2.20
2017-05-28T16:51:54.009Z,1.82
2017-05-28T16:54:20.624Z,1.42
2017-05-28T16:56:47.282Z,1.18
2017-05-28T16:59:13.926Z,1.58
2017-05-28T17:01:40.559Z,1.54
2017-05-28T17:04:07.199Z,1.62
2017-05-28T17:06:33.839Z,1.24
2017-05-28T17:09:00.460Z,1.64
2017-05-28T17:11:27.075Z,1.52
2017-05-28T17:13:53.744Z,1.78
2017-05-28T17:16:20.391Z,2.16
2017-05-28T17:18:47.013Z,1.62
2017-05-28T17:21:13.655Z,1.90
2017-05-28T17:23:40.311Z,1.44
2017-05-28T17:26:06.950Z,13.66
2017-05-28T17:28:33.691Z,14.08
2017-05-28T17:31:00.328Z,4.46
2017-05-28T17:33:26.954Z,11.82
2017-05-28T17:35:53.707Z,15.52
2017-05-28T17:38:20.323Z,4.06
2017-05-28T17:40:46.991Z,13.54
2017-05-28T17:43:13.731Z,5.48
2017-05-28T17:45:40.371Z,19.34
2017-05-28T17:48:06.991Z,7.38
2017-05-28T17:50:33.631Z,5.62
2017-05-28T17:53:00.255Z,10.40
2017-05-28T17:55:26.870Z,4.18
2017-05-28T17:57:53.563Z,7.78
2017-05-28T18:00:20.183Z,8.48
2017-05-28T18:02:46.839Z,8.46
2017-05-28T18:05:13.479Z,3.90
2017-05-28T18:07:40.099Z,13.60
2017-05-28T18:10:06.748Z,10.83
2017-05-28T18:12:33.402Z,12.67
2017-05-28T18:15:00.039Z,10.63
2017-05-28T18:17:26.670Z,8.13
2017-05-28T18:19:53.340Z,9.33
2017-05-28T18:22:19.967Z,7.40
2017-05-28T18:24:46.592Z,6.50
2017-05-28T18:27:13.249Z,5.77
2017-05-28T18:29:39.875Z,8.35
2017-05-28T18:32:06.527Z,7.22
2017-05-28T18:34:33.189Z,6.70
2017-05-28T18:36:59.887Z,6.55
2017-05-28T18:39:26.515Z,6.05
2017-05-28T18:41:53.184Z,5.03
2017-05-28T18:44:19.907Z,7.17
2017-05-28T18:46:46.537Z,6.12
2017-05-28T18:49:13.287Z,6.23
2017-05-28T18:51:40.029Z,6.10
2017-05-28T18:54:06.723Z,5.17
2017-05-28T18:56:33.367Z,4.65
2017-05-28T18:58:59.995Z,5.87
2017-05-28T19:01:26.619Z,4.37
2017-05-28T19:03:53.328Z,4.53
2017-05-28T19:06:19.967Z,4.38
2017-05-28T19:08:46.604Z,5.27
2017-05-28T19:11:13.277Z,5.07
2017-05-28T19:13:39.896Z,5.53
2017-05-28T19:16:06.623Z,4.35
2017-05-28T19:18:33.267Z,4.47
2017-05-28T19:20:59.883Z,4.03
2017-05-28T19:23:26.503Z,4.50
2017-05-28T19:25:53.183Z,5.03
2017-05-28T19:28:19.800Z,5.37
2017-05-28T19:30:46.419Z,4.83
2017-05-28T19:33:13.095Z,5.30
2017-05-28T19:35:39.734Z,5.32
2017-05-28T19:38:06.364Z,4.75
2017-05-28T19:40:33.003Z,5.40
2017-05-28T19:42:59.622Z,4.87
2017-05-28T19:45:26.290Z,5.57
2017-05-28T19:47:53.031Z,5.27
2017-05-28T19:50:19.651Z,5.32
2017-05-28T19:52:46.271Z,5.98
2017-05-28T19:55:12.951Z,5.90
2017-05-28T19:57:39.578Z,5.90
2017-05-28T20:00:06.232Z,5.23
2017-05-28T20:02:32.871Z,4.35
2017-05-28T20:04:59.507Z,7.03
2017-05-28T20:07:26.124Z,5.92
2017-05-28T20:09:52.783Z,5.38
2017-05-28T20:12:19.404Z,5.55
2017-05-28T20:14:46.063Z,5.02
2017-05-28T20:17:12.739Z,5.12
2017-05-28T20:19:39.443Z,5.50
2017-05-28T20:22:06.063Z,5.58
2017-05-28T20:24:32.719Z,5.92
2017-05-28T20:26:59.339Z,5.57
2017-05-28T20:29:25.960Z,5.57
2017-05-28T20:31:52.653Z,5.80
2017-05-28T20:34:19.379Z,5.97
2017-05-28T20:36:45.997Z,5.45
2017-05-28T20:39:12.693Z,5.05
2017-05-28T20:41:39.307Z,5.22
2017-05-28T20:44:05.923Z,5.18
2017-05-28T20:46:32.563Z,5.32
2017-05-28T20:48:59.213Z,5.17
2017-05-28T20:51:25.852Z,5.58
2017-05-28T20:53:52.492Z,8.65
2017-05-28T20:56:19.112Z,7.27
2017-05-28T20:58:45.768Z,9.27
2017-05-28T21:01:12.443Z,8.45
2017-05-28T21:03:39.063Z,11.15
2017-05-28T21:06:05.683Z,9.35
2017-05-28T21:08:32.333Z,9.72
2017-05-28T21:10:58.950Z,7.68
2017-05-28T21:13:25.567Z,7.13
2017-05-28T21:15:52.207Z,7.78
2017-05-28T21:18:18.819Z,8.05
2017-05-28T21:20:45.439Z,7.68
2017-05-28T21:23:12.074Z,7.75
2017-05-28T21:25:38.687Z,7.18
2017-05-28T21:28:05.336Z,6.00
2017-05-28T21:30:32.080Z,5.57
2017-05-28T21:32:58.696Z,6.30
2017-05-28T21:35:25.327Z,6.67
2017-05-28T21:37:52.403Z,6.10
2017-05-28T21:40:19.019Z,7.33
2017-05-28T21:42:45.679Z,7.58
2017-05-28T21:45:12.315Z,6.27
2017-05-28T21:47:38.954Z,11.82
2017-05-28T21:50:05.575Z,12.73
2017-05-28T21:52:32.343Z,10.62
2017-05-28T21:54:58.983Z,10.25
2017-05-28T21:57:25.598Z,10.08
2017-05-28T21:59:52.355Z,10.25
2017-05-28T22:02:18.995Z,10.62
2017-05-28T22:04:45.623Z,10.23
2017-05-28T22:07:12.263Z,9.30
2017-05-28T22:09:38.883Z,10.77
2017-05-28T22:12:05.508Z,10.63
2017-05-28T22:14:32.300Z,11.02
2017-05-28T22:16:58.919Z,9.55
2017-05-28T22:19:25.535Z,7.85
2017-05-28T22:21:52.176Z,8.20
2017-05-28T22:24:18.791Z,6.68
2017-05-28T22:26:45.415Z,6.85
2017-05-28T22:29:12.052Z,6.93
2017-05-28T22:31:38.663Z,8.72
2017-05-28T22:34:05.341Z,6.77
2017-05-28T22:36:31.980Z,9.57
2017-05-28T22:38:58.599Z,10.43
2017-05-28T22:41:25.215Z,6.97
2017-05-28T22:43:51.856Z,7.12
2017-05-28T22:46:18.474Z,6.35
2017-05-28T22:48:45.138Z,6.48
2017-05-28T22:51:11.803Z,6.53
2017-05-28T22:53:38.415Z,6.65
2017-05-28T22:56:05.054Z,7.30
2017-05-28T22:58:31.796Z,6.77
2017-05-28T23:00:58.411Z,6.65
2017-05-28T23:03:25.028Z,7.18
2017-05-28T23:05:51.675Z,6.52
2017-05-28T23:08:18.389Z,6.97
2017-05-28T23:10:45.006Z,6.63
2017-05-28T23:13:11.736Z,6.08
2017-05-28T23:15:38.371Z,7.12
2017-05-28T23:18:05.015Z,6.50
2017-05-28T23:20:31.755Z,6.78
2017-05-28T23:22:58.392Z,6.75
2017-05-28T23:25:25.035Z,6.83
2017-05-28T23:27:51.770Z,7.33
2017-05-28T23:30:18.403Z,6.70
2017-05-28T23:32:45.015Z,6.83
2017-05-28T23:35:11.655Z,6.73
2017-05-28T23:37:38.266Z,7.05
2017-05-28T23:40:04.966Z,6.42
2017-05-28T23:42:31.607Z,7.03
2017-05-28T23:44:58.248Z,7.25
2017-05-28T23:47:24.886Z,7.20
2017-05-28T23:49:51.626Z,7.05
2017-05-28T23:52:18.270Z,8.10
2017-05-28T23:54:44.884Z,6.80
2017-05-28T23:57:11.539Z,6.73
2017-05-28T23:59:38.159Z,7.05
